Time;durP1;ratioP1;P1;durP2;ratioP2;P2;SDS_P1;SDS_P2;PMS_P1;PMS_P2;Temp;Humidity;BMP_temperature;BMP_pressure;BME280_temperature;BME280_humidity;BME280_pressure;Samples;Min_cycle;Max_cycle;Signal;HPM_P1;HPM_P2
2022/08/14 00:00:36;;;;;;;;;;;;;;;;;;2114554;28;20391;-43
2022/08/14 00:01:37;;;;;;;;;;;;;;;;;;2115176;28;20007;-45
2022/08/14 00:02:38;;;;;;;;;;;;;;;;;;2115803;28;19924;-44
2022/08/14 00:03:38;;;;;;;;;;;;;;;;;;2115854;28;19923;-44
2022/08/14 00:04:41;;;;;;;;;;;;;;;;;;2116054;28;19928;-43
2022/08/14 00:05:45;;;;;;;;;;;;;;;;;;2115754;28;19928;-43
2022/08/14 00:06:47;;;;;;;;;;;;;;;;;;2115607;28;19924;-44
2022/08/14 00:07:48;;;;;;;;;;;;;;;;;;2115561;28;20007;-44
2022/08/14 00:08:49;;;;;;;;;;;;;;;;;;2115572;28;19962;-44
2022/08/14 00:09:49;;;;;;;;;;;;;;;;;;2115672;28;20288;-44
2022/08/14 00:11:02;;;;;;;;;;;;;;;;;;2115045;28;20384;-46
2022/08/14 00:12:05;;;;;;;;;;;;;;;;;;2107216;28;19924;-48
2022/08/14 00:13:07;;;;;;;;;;;;;;;;;;2107248;28;20400;-44
2022/08/14 00:14:08;;;;;;;;;;;;;;;;;;2107350;28;20011;-45
2022/08/14 00:15:09;;;;;;;;;;;;;;;;;;2107086;28;20019;-44
2022/08/14 00:16:13;;;;;;;;;;;;;;;;;;2107200;28;20420;-44
2022/08/14 00:17:14;;;;;;;;;;;;;;;;;;2107281;28;20003;-45
2022/08/14 00:18:14;;;;;;;;;;;;;;;;;;2107396;28;19931;-44
2022/08/14 00:19:30;;;;;;;;;;;;;;;;;;2107215;28;20369;-45
2022/08/14 00:20:31;;;;;;;;;;;;;;;;;;2107220;28;20454;-44
2022/08/14 00:21:37;;;;;;;;;;;;;;;;;;2107185;28;19967;-45
2022/08/14 00:22:37;;;;;;;;;;;;;;;;;;2107288;28;20011;-45
2022/08/14 00:23:57;;;;;;;;;;;;;;;;;;2107192;28;19924;-45
2022/08/14 00:25:02;;;;;;;;;;;;;;;;;;2107144;28;19924;-44
2022/08/14 00:26:03;;;;;;;;;;;;;;;;;;2107174;28;20242;-45
2022/08/14 00:27:06;;;;;;;;;;;;;;;;;;2107073;28;19968;-46
2022/08/14 00:28:07;;;;;;;;;;;;;;;;;;2107278;28;19978;-45
2022/08/14 00:29:08;;;;;;;;;;;;;;;;;;2106981;28;20015;-43
2022/08/14 00:30:09;;;;;;;;;;;;;;;;;;2107289;28;19924;-44
2022/08/14 00:31:13;;;;;;;;;;;;;;;;;;2109653;28;19935;-44
2022/08/14 00:32:13;;;;;;;;;;;;;;;;;;2115651;28;20366;-45
2022/08/14 00:33:34;;;;;;;;;;;;;;;;;;2107157;28;19924;-44
2022/08/14 00:34:52;;;;;;;;;;;;;;;;;;2107237;28;19924;-45
2022/08/14 00:35:53;;;;;;;;;;;;;;;;;;2106969;28;20372;-45
2022/08/14 00:37:14;;;;;;;;;;;;;;;;;;2106784;28;19932;-44
2022/08/14 00:38:15;;;;;;;;;;;;;;;;;;2107318;28;19924;-46
2022/08/14 00:39:16;;;;;;;;;;;;;;;;;;2106947;28;20010;-44
2022/08/14 00:40:18;;;;;;;;;;;;;;;;;;2107057;28;20471;-45
2022/08/14 00:41:34;;;;;;;;;;;;;;;;;;2107137;28;20012;-44
2022/08/14 00:42:34;;;;;;;;;;;;;;;;;;2106935;28;20324;-43
2022/08/14 00:43:53;;;;;;;;;;;;;;;;;;2107096;28;19924;-45
2022/08/14 00:44:54;;;;;;;;;;;;;;;;;;2106987;28;19924;-44
2022/08/14 00:45:56;;;;;;;;;;;;;;;;;;2107169;28;19928;-44
2022/08/14 00:46:57;;;;;;;;;;;;;;;;;;2106893;28;19924;-44
2022/08/14 00:47:59;;;;;;;;;;;;;;;;;;2106929;28;19924;-45
2022/08/14 00:49:00;;;;;;;;;;;;;;;;;;2107131;28;20007;-45
2022/08/14 00:50:03;;;;;;;;;;;;;;;;;;2107032;28;19924;-44
2022/08/14 00:51:03;;;;;;;;;;;;;;;;;;2107136;28;19928;-44
2022/08/14 00:52:04;;;;;;;;;;;;;;;;;;2107061;28;19925;-44
2022/08/14 00:53:06;;;;;;;;;;;;;;;;;;2106983;28;19924;-44
2022/08/14 00:54:11;;;;;;;;;;;;;;;;;;2107043;28;20018;-45
2022/08/14 00:55:22;;;;;;;;;;;;;;;;;;2107106;28;19924;-44
2022/08/14 00:56:23;;;;;;;;;;;;;;;;;;2106989;28;19928;-44
2022/08/14 00:57:24;;;;;;;;;;;;;;;;;;2107059;28;19927;-43
2022/08/14 00:58:31;;;;;;;;;;;;;;;;;;2107089;28;20019;-45
2022/08/14 00:59:34;;;;;;;;;;;;;;;;;;2107041;28;20380;-46
2022/08/14 01:00:35;;;;;;;;;;;;;;;;;;2106899;28;19930;-45
2022/08/14 01:01:43;;;;;;;;;;;;;;;;;;2106874;28;20316;-45
2022/08/14 01:02:44;;;;;;;;;;;;;;;;;;2106872;28;19924;-45
2022/08/14 01:03:45;;;;;;;;;;;;;;;;;;2106830;28;19924;-45
2022/08/14 01:04:46;;;;;;;;;;;;;;;;;;2106861;28;20349;-45
2022/08/14 01:05:54;;;;;;;;;;;;;;;;;;2106954;28;20377;-46
2022/08/14 01:06:56;;;;;;;;;;;;;;;;;;2106695;28;19924;-47
2022/08/14 01:07:58;;;;;;;;;;;;;;;;;;2106842;28;19931;-45
2022/08/14 01:08:58;;;;;;;;;;;;;;;;;;2107280;28;19974;-45
2022/08/14 01:10:00;;;;;;;;;;;;;;;;;;2106967;28;19947;-45
2022/08/14 01:11:01;;;;;;;;;;;;;;;;;;2107248;28;20018;-44
2022/08/14 01:12:02;;;;;;;;;;;;;;;;;;2115227;28;19924;-46
2022/08/14 01:13:04;;;;;;;;;;;;;;;;;;2114510;28;19931;-45
2022/08/14 01:14:05;;;;;;;;;;;;;;;;;;2115219;28;20014;-45
2022/08/14 01:15:25;;;;;;;;;;;;;;;;;;2115265;28;20327;-44
2022/08/14 01:16:32;;;;;;;;;;;;;;;;;;2115357;28;19975;-45
2022/08/14 01:21:32;;;;;;;;;;;;;;;;;;2115301;28;20031;-44
2022/08/14 01:22:35;;;;;;;;;;;;;;;;;;2115207;28;19923;-44
2022/08/14 01:23:37;;;;;;;;;;;;;;;;;;2115752;28;19935;-45
2022/08/14 01:24:42;;;;;;;;;;;;;;;;;;2115178;28;19934;-45
2022/08/14 01:25:43;;;;;;;;;;;;;;;;;;2115329;28;20388;-45
2022/08/14 01:26:45;;;;;;;;;;;;;;;;;;2115076;28;19923;-44
2022/08/14 01:27:57;;;;;;;;;;;;;;;;;;2114886;28;20006;-45
2022/08/14 01:28:58;;;;;;;;;;;;;;;;;;2115245;28;19924;-45
2022/08/14 01:29:59;;;;;;;;;;;;;;;;;;2115217;28;20018;-44
2022/08/14 01:31:05;;;;;;;;;;;;;;;;;;2115430;28;20330;-44
2022/08/14 01:32:06;;;;;;;;;;;;;;;;;;2115197;28;19980;-45
2022/08/14 01:33:11;;;;;;;;;;;;;;;;;;2115302;28;19923;-44
2022/08/14 01:34:12;;;;;;;;;;;;;;;;;;2115113;28;20026;-44
2022/08/14 01:35:33;;;;;;;;;;;;;;;;;;2115325;28;19924;-44
2022/08/14 01:36:54;;;;;;;;;;;;;;;;;;2115157;28;19924;-43
2022/08/14 01:37:55;;;;;;;;;;;;;;;;;;2115116;28;19996;-44
2022/08/14 01:38:57;;;;;;;;;;;;;;;;;;2115069;28;19923;-44
2022/08/14 01:39:58;;;;;;;;;;;;;;;;;;2115327;28;19931;-44
2022/08/14 01:40:59;;;;;;;;;;;;;;;;;;2115223;28;19924;-45
2022/08/14 01:42:00;;;;;;;;;;;;;;;;;;2115167;28;20296;-45
2022/08/14 01:43:01;;;;;;;;;;;;;;;;;;2114956;28;19934;-47
2022/08/14 01:44:04;;;;;;;;;;;;;;;;;;2115213;28;19923;-48
2022/08/14 01:45:11;;;;;;;;;;;;;;;;;;2115071;28;20392;-49
2022/08/14 01:46:12;;;;;;;;;;;;;;;;;;2114900;28;20371;-45
2022/08/14 01:47:26;;;;;;;;;;;;;;;;;;2115031;28;19924;-45
2022/08/14 01:48:29;;;;;;;;;;;;;;;;;;2115064;28;19976;-46
2022/08/14 01:49:30;;;;;;;;;;;;;;;;;;2115074;28;19924;-47
2022/08/14 01:50:33;;;;;;;;;;;;;;;;;;2115151;28;19962;-45
2022/08/14 01:51:34;;;;;;;;;;;;;;;;;;2114984;28;20400;-45
2022/08/14 01:52:35;;;;;;;;;;;;;;;;;;2115156;28;19934;-44
2022/08/14 01:53:56;;;;;;;;;;;;;;;;;;2115160;28;19931;-45
2022/08/14 01:54:57;;;;;;;;;;;;;;;;;;2115005;28;19970;-46
2022/08/14 01:55:59;;;;;;;;;;;;;;;;;;2115064;28;19924;-45
2022/08/14 01:56:59;;;;;;;;;;;;;;;;;;2114945;28;20421;-45
2022/08/14 01:58:00;;;;;;;;;;;;;;;;;;2115146;28;20014;-44
2022/08/14 01:59:21;;;;;;;;;;;;;;;;;;2115178;28;19995;-45
2022/08/14 02:00:21;;;;;;;;;;;;;;;;;;2115159;28;20004;-44
2022/08/14 02:01:22;;;;;;;;;;;;;;;;;;2115134;28;19973;-45
2022/08/14 02:02:23;;;;;;;;;;;;;;;;;;2115105;28;19928;-46
2022/08/14 02:03:24;;;;;;;;;;;;;;;;;;2114946;28;19976;-45
2022/08/14 02:04:31;;;;;;;;;;;;;;;;;;2115149;28;19934;-45
2022/08/14 02:05:57;;;;;;;;;;;;;;;;;;2114964;28;19928;-46
2022/08/14 02:06:57;;;;;;;;;;;;;;;;;;2114926;28;20363;-45
2022/08/14 02:07:58;;;;;;;;;;;;;;;;;;2114868;28;19923;-45
2022/08/14 02:09:09;;;;;;;;;;;;;;;;;;2115172;28;19977;-45
2022/08/14 02:10:20;;;;;;;;;;;;;;;;;;2115156;28;19931;-45
2022/08/14 02:11:26;;;;;;;;;;;;;;;;;;2110703;28;19924;-44
2022/08/14 02:12:28;;;;;;;;;;;;;;;;;;2106541;28;20355;-45
2022/08/14 02:13:30;;;;;;;;;;;;;;;;;;2106747;28;20014;-45
2022/08/14 02:14:32;;;;;;;;;;;;;;;;;;2106155;28;19924;-45
2022/08/14 02:15:33;;;;;;;;;;;;;;;;;;2105957;28;20440;-46
2022/08/14 02:16:37;;;;;;;;;;;;;;;;;;2106019;28;20010;-46
2022/08/14 02:17:38;;;;;;;;;;;;;;;;;;2106127;28;20015;-45
2022/08/14 02:18:39;;;;;;;;;;;;;;;;;;2106149;28;19931;-45
2022/08/14 02:19:40;;;;;;;;;;;;;;;;;;2105898;28;20438;-46
2022/08/14 02:20:41;;;;;;;;;;;;;;;;;;2106582;28;19931;-45
2022/08/14 02:21:42;;;;;;;;;;;;;;;;;;2106318;28;20281;-45
2022/08/14 02:22:47;;;;;;;;;;;;;;;;;;2106397;28;20269;-46
2022/08/14 02:23:49;;;;;;;;;;;;;;;;;;2110024;28;20430;-45
2022/08/14 02:24:54;;;;;;;;;;;;;;;;;;2113548;28;19965;-45
2022/08/14 02:25:55;;;;;;;;;;;;;;;;;;2114936;28;19927;-46
2022/08/14 02:26:57;;;;;;;;;;;;;;;;;;2114858;28;19928;-46
2022/08/14 02:28:18;;;;;;;;;;;;;;;;;;2114539;28;20314;-45
2022/08/14 02:29:39;;;;;;;;;;;;;;;;;;2114882;28;19946;-47
2022/08/14 02:30:59;;;;;;;;;;;;;;;;;;2114941;28;20380;-45
2022/08/14 02:32:00;;;;;;;;;;;;;;;;;;2114652;28;20371;-44
2022/08/14 02:33:01;;;;;;;;;;;;;;;;;;2114801;28;20535;-45
2022/08/14 02:34:02;;;;;;;;;;;;;;;;;;2114682;28;19952;-44
2022/08/14 02:35:05;;;;;;;;;;;;;;;;;;2114672;28;19966;-45
2022/08/14 02:36:06;;;;;;;;;;;;;;;;;;2114661;28;20369;-44
2022/08/14 02:37:27;;;;;;;;;;;;;;;;;;2114798;28;19943;-44
2022/08/14 02:38:47;;;;;;;;;;;;;;;;;;2114587;28;20361;-45
2022/08/14 02:39:49;;;;;;;;;;;;;;;;;;2114629;28;19930;-44
2022/08/14 02:40:50;;;;;;;;;;;;;;;;;;2114859;28;19931;-44
2022/08/14 02:41:51;;;;;;;;;;;;;;;;;;2114538;28;20301;-46
2022/08/14 02:42:53;;;;;;;;;;;;;;;;;;2114737;28;19924;-44
2022/08/14 02:43:56;;;;;;;;;;;;;;;;;;2114802;28;19950;-45
2022/08/14 02:45:01;;;;;;;;;;;;;;;;;;2115062;28;19977;-44
2022/08/14 02:46:02;;;;;;;;;;;;;;;;;;2114612;28;19966;-45
2022/08/14 02:47:03;;;;;;;;;;;;;;;;;;2114610;28;19930;-45
2022/08/14 02:48:05;;;;;;;;;;;;;;;;;;2114637;28;20288;-43
2022/08/14 02:49:06;;;;;;;;;;;;;;;;;;2114849;28;20059;-44
2022/08/14 02:50:07;;;;;;;;;;;;;;;;;;2114911;28;20048;-46
2022/08/14 02:51:09;;;;;;;;;;;;;;;;;;2114571;28;19923;-45
2022/08/14 02:52:11;;;;;;;;;;;;;;;;;;2114615;28;20406;-44
2022/08/14 02:53:32;;;;;;;;;;;;;;;;;;2114665;28;19935;-45
2022/08/14 02:54:34;;;;;;;;;;;;;;;;;;2114621;28;19935;-45
2022/08/14 02:55:34;;;;;;;;;;;;;;;;;;2114768;28;20219;-45
2022/08/14 02:56:37;;;;;;;;;;;;;;;;;;2114968;28;20292;-46
2022/08/14 02:57:57;;;;;;;;;;;;;;;;;;2114779;28;19924;-44
2022/08/14 02:59:05;;;;;;;;;;;;;;;;;;2114677;28;19927;-45
2022/08/14 03:00:06;;;;;;;;;;;;;;;;;;2114883;28;19924;-45
2022/08/14 03:01:07;;;;;;;;;;;;;;;;;;2114913;28;20331;-45
2022/08/14 03:02:08;;;;;;;;;;;;;;;;;;2114655;28;19923;-44
2022/08/14 03:03:10;;;;;;;;;;;;;;;;;;2114683;28;20270;-43
2022/08/14 03:04:12;;;;;;;;;;;;;;;;;;2114539;28;20011;-44
2022/08/14 03:05:12;;;;;;;;;;;;;;;;;;2114742;28;20002;-43
2022/08/14 03:06:13;;;;;;;;;;;;;;;;;;2114601;28;19946;-44
2022/08/14 03:07:15;;;;;;;;;;;;;;;;;;2114784;28;20365;-45
2022/08/14 03:08:17;;;;;;;;;;;;;;;;;;2114538;28;19989;-45
2022/08/14 03:09:19;;;;;;;;;;;;;;;;;;2114679;28;19924;-45
2022/08/14 03:10:20;;;;;;;;;;;;;;;;;;2114766;28;20433;-45
2022/08/14 03:11:27;;;;;;;;;;;;;;;;;;2114681;28;19924;-44
2022/08/14 03:12:35;;;;;;;;;;;;;;;;;;2114655;28;19931;-44
2022/08/14 03:13:36;;;;;;;;;;;;;;;;;;2114785;28;20335;-43
2022/08/14 03:14:38;;;;;;;;;;;;;;;;;;2114461;28;19924;-45
2022/08/14 03:15:39;;;;;;;;;;;;;;;;;;2114471;28;20384;-44
2022/08/14 03:16:40;;;;;;;;;;;;;;;;;;2114442;28;19968;-46
2022/08/14 03:17:41;;;;;;;;;;;;;;;;;;2114646;28;19924;-44
2022/08/14 03:18:59;;;;;;;;;;;;;;;;;;2114882;28;19924;-46
2022/08/14 03:20:00;;;;;;;;;;;;;;;;;;2114219;28;20294;-44
2022/08/14 03:21:01;;;;;;;;;;;;;;;;;;2114582;28;19931;-45
2022/08/14 03:22:03;;;;;;;;;;;;;;;;;;2106259;28;19970;-44
2022/08/14 03:23:04;;;;;;;;;;;;;;;;;;2106031;28;19989;-46
2022/08/14 03:24:11;;;;;;;;;;;;;;;;;;2106080;28;20353;-45
2022/08/14 03:25:22;;;;;;;;;;;;;;;;;;2106018;28;20377;-45
2022/08/14 03:26:26;;;;;;;;;;;;;;;;;;2106067;28;20007;-46
2022/08/14 03:27:30;;;;;;;;;;;;;;;;;;2106148;28;19993;-44
2022/08/14 03:28:39;;;;;;;;;;;;;;;;;;2106063;28;19932;-46
2022/08/14 03:29:40;;;;;;;;;;;;;;;;;;2106007;28;20018;-45
2022/08/14 03:30:41;;;;;;;;;;;;;;;;;;2106017;28;20377;-45
2022/08/14 03:31:42;;;;;;;;;;;;;;;;;;2106331;28;19949;-46
2022/08/14 03:32:43;;;;;;;;;;;;;;;;;;2106329;28;19924;-46
2022/08/14 03:33:44;;;;;;;;;;;;;;;;;;2105988;28;19924;-45
2022/08/14 03:34:45;;;;;;;;;;;;;;;;;;2105965;28;19957;-45
2022/08/14 03:35:49;;;;;;;;;;;;;;;;;;2106199;28;19931;-45
2022/08/14 03:37:07;;;;;;;;;;;;;;;;;;2107849;28;19975;-45
2022/08/14 03:38:29;;;;;;;;;;;;;;;;;;2107752;28;19924;-45
2022/08/14 03:39:50;;;;;;;;;;;;;;;;;;2107514;28;19931;-45
2022/08/14 03:40:51;;;;;;;;;;;;;;;;;;2107638;28;20002;-46
2022/08/14 03:41:52;;;;;;;;;;;;;;;;;;2107495;28;19932;-46
2022/08/14 03:42:53;;;;;;;;;;;;;;;;;;2107515;28;19924;-44
2022/08/14 03:43:55;;;;;;;;;;;;;;;;;;2107576;28;19928;-44
2022/08/14 03:44:57;;;;;;;;;;;;;;;;;;2107471;28;19936;-45
2022/08/14 03:46:18;;;;;;;;;;;;;;;;;;2107268;28;19924;-45
2022/08/14 03:47:39;;;;;;;;;;;;;;;;;;2107379;28;19931;-45
2022/08/14 03:48:46;;;;;;;;;;;;;;;;;;2107301;28;19964;-44
2022/08/14 03:49:47;;;;;;;;;;;;;;;;;;2107409;28;20333;-45
2022/08/14 03:50:50;;;;;;;;;;;;;;;;;;2107660;28;19924;-44
2022/08/14 03:51:51;;;;;;;;;;;;;;;;;;2107257;28;20043;-45
2022/08/14 03:52:52;;;;;;;;;;;;;;;;;;2107506;28;20049;-44
2022/08/14 03:53:56;;;;;;;;;;;;;;;;;;2107338;28;20356;-45
2022/08/14 03:54:58;;;;;;;;;;;;;;;;;;2107417;28;19973;-45
2022/08/14 03:55:59;;;;;;;;;;;;;;;;;;2107514;28;19945;-45
2022/08/14 03:57:00;;;;;;;;;;;;;;;;;;2107444;28;20019;-44
2022/08/14 03:58:03;;;;;;;;;;;;;;;;;;2107200;28;19924;-45
2022/08/14 03:59:10;;;;;;;;;;;;;;;;;;2107613;28;19924;-44
2022/08/14 04:00:12;;;;;;;;;;;;;;;;;;2107460;28;19924;-46
2022/08/14 04:01:13;;;;;;;;;;;;;;;;;;2107203;28;19924;-45
2022/08/14 04:02:15;;;;;;;;;;;;;;;;;;2107610;28;20018;-45
2022/08/14 04:03:33;;;;;;;;;;;;;;;;;;2107451;28;19924;-45
2022/08/14 04:04:34;;;;;;;;;;;;;;;;;;2107515;28;20428;-46
2022/08/14 04:05:37;;;;;;;;;;;;;;;;;;2107275;28;19953;-45
2022/08/14 04:06:43;;;;;;;;;;;;;;;;;;2107312;28;19931;-45
2022/08/14 04:07:48;;;;;;;;;;;;;;;;;;2107283;28;19924;-46
2022/08/14 04:09:00;;;;;;;;;;;;;;;;;;2107634;28;20368;-45
2022/08/14 04:10:01;;;;;;;;;;;;;;;;;;2107368;28;19935;-45
2022/08/14 04:11:03;;;;;;;;;;;;;;;;;;2106997;28;20468;-45
2022/08/14 04:12:08;;;;;;;;;;;;;;;;;;2107500;28;19924;-44
2022/08/14 04:13:17;;;;;;;;;;;;;;;;;;2107319;28;20313;-47
2022/08/14 04:14:18;;;;;;;;;;;;;;;;;;2107209;28;20027;-45
2022/08/14 04:15:18;;;;;;;;;;;;;;;;;;2107346;28;19924;-47
2022/08/14 04:16:20;;;;;;;;;;;;;;;;;;2110892;28;20388;-45
2022/08/14 04:17:21;;;;;;;;;;;;;;;;;;2115700;28;20069;-45
2022/08/14 04:18:22;;;;;;;;;;;;;;;;;;2115601;28;20061;-46
2022/08/14 04:19:23;;;;;;;;;;;;;;;;;;2115562;28;20014;-46
2022/08/14 04:20:24;;;;;;;;;;;;;;;;;;2115738;28;19927;-45
2022/08/14 04:21:28;;;;;;;;;;;;;;;;;;2115737;28;19955;-45
2022/08/14 04:22:29;;;;;;;;;;;;;;;;;;2115497;28;20030;-45
2022/08/14 04:23:30;;;;;;;;;;;;;;;;;;2115609;28;19978;-45
2022/08/14 04:24:33;;;;;;;;;;;;;;;;;;2115503;28;19924;-45
2022/08/14 04:25:39;;;;;;;;;;;;;;;;;;2115800;28;19924;-44
2022/08/14 04:26:40;;;;;;;;;;;;;;;;;;2115851;28;19924;-45
2022/08/14 04:27:43;;;;;;;;;;;;;;;;;;2115575;28;20401;-45
2022/08/14 04:28:49;;;;;;;;;;;;;;;;;;2115573;28;20439;-45
2022/08/14 04:30:07;;;;;;;;;;;;;;;;;;2115813;28;20018;-45
2022/08/14 04:31:08;;;;;;;;;;;;;;;;;;2115360;28;19924;-45
2022/08/14 04:32:09;;;;;;;;;;;;;;;;;;2115748;28;20353;-45
2022/08/14 04:33:31;;;;;;;;;;;;;;;;;;2115615;28;19928;-44
2022/08/14 04:34:33;;;;;;;;;;;;;;;;;;2115564;28;19983;-45
2022/08/14 04:35:34;;;;;;;;;;;;;;;;;;2115552;28;20387;-47
2022/08/14 04:43:39;;;;;;;;;;;;;;;;;;2115570;28;19967;-44
2022/08/14 04:44:39;;;;;;;;;;;;;;;;;;2115695;28;20373;-44
2022/08/14 04:45:41;;;;;;;;;;;;;;;;;;2115390;28;19924;-45
2022/08/14 04:48:11;;;;;;;;;;;;;;;;;;2115205;28;19934;-45
2022/08/14 04:48:14;;;;;;;;;;;;;;;;;;2114475;28;20011;-46
2022/08/14 04:49:35;;;;;;;;;;;;;;;;;;2115544;28;19931;-44
2022/08/14 04:50:47;;;;;;;;;;;;;;;;;;2115656;28;19924;-46
2022/08/14 04:51:54;;;;;;;;;;;;;;;;;;2115374;28;19924;-45
2022/08/14 04:52:56;;;;;;;;;;;;;;;;;;2115518;28;19924;-45
2022/08/14 04:53:58;;;;;;;;;;;;;;;;;;2115353;28;19923;-44
2022/08/14 04:55:00;;;;;;;;;;;;;;;;;;2115469;28;19923;-46
2022/08/14 04:56:00;;;;;;;;;;;;;;;;;;2115558;28;20026;-46
2022/08/14 04:57:01;;;;;;;;;;;;;;;;;;2115523;28;20351;-44
2022/08/14 04:58:02;;;;;;;;;;;;;;;;;;2115242;28;19928;-45
2022/08/14 04:59:03;;;;;;;;;;;;;;;;;;2115492;28;19923;-45
2022/08/14 05:00:05;;;;;;;;;;;;;;;;;;2115316;28;19923;-46
2022/08/14 05:01:06;;;;;;;;;;;;;;;;;;2115228;28;20010;-44
2022/08/14 05:02:15;;;;;;;;;;;;;;;;;;2115709;28;19928;-45
2022/08/14 05:03:16;;;;;;;;;;;;;;;;;;2115280;28;19953;-44
2022/08/14 05:04:17;;;;;;;;;;;;;;;;;;2115359;28;20012;-46
2022/08/14 05:05:23;;;;;;;;;;;;;;;;;;2115464;28;19996;-44
2022/08/14 05:06:24;;;;;;;;;;;;;;;;;;2115572;28;20012;-46
2022/08/14 05:07:41;;;;;;;;;;;;;;;;;;2115371;28;19939;-45
2022/08/14 05:08:54;;;;;;;;;;;;;;;;;;2115391;28;20276;-45
2022/08/14 05:10:00;;;;;;;;;;;;;;;;;;2115297;28;19970;-45
2022/08/14 05:11:01;;;;;;;;;;;;;;;;;;2114687;28;20018;-45
2022/08/14 05:12:03;;;;;;;;;;;;;;;;;;2106876;28;19928;-46
2022/08/14 05:13:24;;;;;;;;;;;;;;;;;;2106946;28;19935;-45
2022/08/14 05:14:32;;;;;;;;;;;;;;;;;;2106959;28;19973;-45
2022/08/14 05:15:48;;;;;;;;;;;;;;;;;;2107029;28;19963;-44
2022/08/14 05:16:49;;;;;;;;;;;;;;;;;;2106733;28;20023;-47
2022/08/14 05:17:50;;;;;;;;;;;;;;;;;;2107134;28;19924;-44
2022/08/14 05:18:59;;;;;;;;;;;;;;;;;;2106787;28;20330;-46
2022/08/14 05:20:19;;;;;;;;;;;;;;;;;;2107083;28;20228;-44
2022/08/14 05:21:40;;;;;;;;;;;;;;;;;;2106835;28;20007;-45
2022/08/14 05:23:02;;;;;;;;;;;;;;;;;;2106710;28;19931;-45
2022/08/14 05:24:03;;;;;;;;;;;;;;;;;;2106766;28;20014;-46
2022/08/14 05:25:04;;;;;;;;;;;;;;;;;;2106933;28;20304;-46
2022/08/14 05:26:11;;;;;;;;;;;;;;;;;;2106604;28;19988;-46
2022/08/14 05:27:12;;;;;;;;;;;;;;;;;;2106838;28;20019;-45
2022/08/14 05:28:17;;;;;;;;;;;;;;;;;;2106648;28;19928;-44
2022/08/14 05:29:18;;;;;;;;;;;;;;;;;;2106864;28;19934;-46
2022/08/14 05:30:19;;;;;;;;;;;;;;;;;;2106701;28;19986;-45
2022/08/14 05:31:20;;;;;;;;;;;;;;;;;;2106857;28;19959;-44
2022/08/14 05:32:21;;;;;;;;;;;;;;;;;;2106630;28;20296;-45
2022/08/14 05:33:23;;;;;;;;;;;;;;;;;;2106850;28;19928;-44
2022/08/14 05:34:28;;;;;;;;;;;;;;;;;;2106798;28;20114;-45
2022/08/14 05:35:32;;;;;;;;;;;;;;;;;;2106814;28;19932;-44
2022/08/14 05:36:33;;;;;;;;;;;;;;;;;;2106772;28;19976;-44
2022/08/14 05:37:34;;;;;;;;;;;;;;;;;;2106789;28;19989;-44
2022/08/14 05:38:35;;;;;;;;;;;;;;;;;;2106740;28;20009;-44
2022/08/14 05:39:36;;;;;;;;;;;;;;;;;;2106629;28;20334;-45
2022/08/14 05:40:37;;;;;;;;;;;;;;;;;;2106697;28;19947;-44
2022/08/14 05:41:38;;;;;;;;;;;;;;;;;;2106634;28;19924;-45
2022/08/14 05:42:54;;;;;;;;;;;;;;;;;;2106928;28;19931;-45
2022/08/14 05:43:55;;;;;;;;;;;;;;;;;;2106554;28;19928;-45
2022/08/14 05:44:56;;;;;;;;;;;;;;;;;;2106639;28;20349;-45
2022/08/14 05:45:57;;;;;;;;;;;;;;;;;;2106703;28;19973;-44
2022/08/14 05:46:58;;;;;;;;;;;;;;;;;;2106580;28;20015;-45
2022/08/14 05:47:59;;;;;;;;;;;;;;;;;;2106630;28;19970;-45
2022/08/14 05:49:00;;;;;;;;;;;;;;;;;;2106803;28;19924;-45
2022/08/14 05:50:01;;;;;;;;;;;;;;;;;;2106777;28;20345;-46
2022/08/14 05:51:02;;;;;;;;;;;;;;;;;;2106584;28;19931;-45
2022/08/14 05:52:02;;;;;;;;;;;;;;;;;;2106847;28;19928;-46
2022/08/14 05:53:03;;;;;;;;;;;;;;;;;;2106509;28;19930;-45
2022/08/14 05:54:04;;;;;;;;;;;;;;;;;;2106547;28;19930;-44
2022/08/14 05:55:14;;;;;;;;;;;;;;;;;;2106754;28;19924;-45
2022/08/14 05:56:14;;;;;;;;;;;;;;;;;;2106363;28;19968;-47
2022/08/14 05:57:16;;;;;;;;;;;;;;;;;;2106544;28;19986;-46
2022/08/14 05:58:16;;;;;;;;;;;;;;;;;;2106574;28;19924;-45
2022/08/14 05:59:17;;;;;;;;;;;;;;;;;;2106266;28;19974;-46
2022/08/14 06:00:19;;;;;;;;;;;;;;;;;;2106554;28;19931;-45
2022/08/14 06:01:28;;;;;;;;;;;;;;;;;;2106474;28;19924;-44
2022/08/14 06:02:31;;;;;;;;;;;;;;;;;;2106574;28;19924;-45
2022/08/14 06:03:33;;;;;;;;;;;;;;;;;;2106500;28;20114;-45
2022/08/14 06:04:33;;;;;;;;;;;;;;;;;;2106424;28;19924;-44
2022/08/14 06:05:34;;;;;;;;;;;;;;;;;;2106410;28;19931;-43
2022/08/14 06:06:35;;;;;;;;;;;;;;;;;;2106410;28;20452;-44
2022/08/14 06:07:39;;;;;;;;;;;;;;;;;;2106585;28;19928;-44
2022/08/14 06:08:40;;;;;;;;;;;;;;;;;;2108952;28;20335;-46
2022/08/14 06:09:41;;;;;;;;;;;;;;;;;;2115028;28;19931;-44
2022/08/14 06:10:42;;;;;;;;;;;;;;;;;;2114966;28;20288;-44
2022/08/14 06:11:44;;;;;;;;;;;;;;;;;;2108266;28;20446;-45
2022/08/14 06:12:44;;;;;;;;;;;;;;;;;;2106430;28;20015;-46
2022/08/14 06:13:57;;;;;;;;;;;;;;;;;;2106481;28;20377;-45
2022/08/14 06:14:59;;;;;;;;;;;;;;;;;;2106480;28;19960;-48
2022/08/14 06:16:00;;;;;;;;;;;;;;;;;;2106805;28;19969;-44
2022/08/14 06:17:00;;;;;;;;;;;;;;;;;;2106560;28;20461;-44
2022/08/14 06:18:01;;;;;;;;;;;;;;;;;;2106411;28;19936;-44
2022/08/14 06:19:02;;;;;;;;;;;;;;;;;;2106576;28;19971;-45
2022/08/14 06:20:03;;;;;;;;;;;;;;;;;;2106405;28;20385;-46
2022/08/14 06:21:04;;;;;;;;;;;;;;;;;;2106314;28;19928;-46
2022/08/14 06:22:05;;;;;;;;;;;;;;;;;;2106334;28;20037;-46
2022/08/14 06:23:06;;;;;;;;;;;;;;;;;;2106498;28;20020;-45
2022/08/14 06:24:07;;;;;;;;;;;;;;;;;;2106319;28;20413;-45
2022/08/14 06:25:10;;;;;;;;;;;;;;;;;;2106617;28;19924;-46
2022/08/14 06:26:16;;;;;;;;;;;;;;;;;;2106545;28;19924;-45
2022/08/14 06:27:21;;;;;;;;;;;;;;;;;;2106451;28;19928;-46
2022/08/14 06:28:22;;;;;;;;;;;;;;;;;;2106368;28;19928;-45
2022/08/14 06:29:28;;;;;;;;;;;;;;;;;;2106478;28;19932;-44
2022/08/14 06:30:33;;;;;;;;;;;;;;;;;;2106328;28;20397;-45
2022/08/14 06:31:46;;;;;;;;;;;;;;;;;;2106287;28;19977;-44
2022/08/14 06:32:48;;;;;;;;;;;;;;;;;;2106544;28;20369;-45
2022/08/14 06:33:53;;;;;;;;;;;;;;;;;;2106355;28;19954;-45
2022/08/14 06:35:14;;;;;;;;;;;;;;;;;;2106411;28;19924;-44
2022/08/14 06:36:15;;;;;;;;;;;;;;;;;;2106359;28;20077;-44
2022/08/14 06:37:18;;;;;;;;;;;;;;;;;;2106405;28;20006;-44
2022/08/14 06:38:19;;;;;;;;;;;;;;;;;;2106308;28;19924;-44
2022/08/14 06:39:21;;;;;;;;;;;;;;;;;;2106198;28;20337;-44
2022/08/14 06:40:37;;;;;;;;;;;;;;;;;;2106755;28;20012;-45
2022/08/14 06:41:41;;;;;;;;;;;;;;;;;;2106293;28;19924;-44
2022/08/14 06:42:59;;;;;;;;;;;;;;;;;;2106370;28;20324;-44
2022/08/14 06:44:03;;;;;;;;;;;;;;;;;;2106373;28;19924;-44
2022/08/14 06:45:04;;;;;;;;;;;;;;;;;;2106443;28;20369;-46
2022/08/14 06:46:05;;;;;;;;;;;;;;;;;;2106567;28;19924;-44
2022/08/14 06:47:06;;;;;;;;;;;;;;;;;;2106178;28;20403;-44
2022/08/14 06:48:07;;;;;;;;;;;;;;;;;;2106514;28;19932;-46
2022/08/14 06:49:12;;;;;;;;;;;;;;;;;;2106368;28;19985;-45
2022/08/14 06:50:13;;;;;;;;;;;;;;;;;;2106388;28;19928;-46
2022/08/14 06:51:14;;;;;;;;;;;;;;;;;;2106064;28;20426;-45
2022/08/14 06:52:15;;;;;;;;;;;;;;;;;;2106170;28;19981;-46
2022/08/14 06:53:18;;;;;;;;;;;;;;;;;;2106416;28;20293;-47
2022/08/14 06:54:19;;;;;;;;;;;;;;;;;;2106592;28;20026;-45
2022/08/14 06:55:20;;;;;;;;;;;;;;;;;;2106403;28;19924;-46
2022/08/14 06:56:26;;;;;;;;;;;;;;;;;;2106324;28;19925;-45
2022/08/14 06:57:27;;;;;;;;;;;;;;;;;;2112297;28;19923;-43
2022/08/14 06:58:29;;;;;;;;;;;;;;;;;;2114638;28;20369;-45
2022/08/14 06:59:31;;;;;;;;;;;;;;;;;;2114834;28;19924;-45
2022/08/14 07:00:34;;;;;;;;;;;;;;;;;;2114478;28;19924;-45
2022/08/14 07:05:48;;;;;;;;;;;;;;;;;;2106365;28;20453;-44
2022/08/14 07:06:56;;;;;;;;;;;;;;;;;;2113705;28;20073;-44
2022/08/14 07:07:59;;;;;;;;;;;;;;;;;;2114699;28;19958;-44
2022/08/14 07:09:00;;;;;;;;;;;;;;;;;;2114540;28;20368;-43
2022/08/14 07:10:03;;;;;;;;;;;;;;;;;;2114465;28;20011;-45
2022/08/14 07:11:04;;;;;;;;;;;;;;;;;;2113544;28;19946;-46
2022/08/14 07:12:05;;;;;;;;;;;;;;;;;;2107908;28;20446;-45
2022/08/14 07:13:06;;;;;;;;;;;;;;;;;;2108140;28;19924;-45
2022/08/14 07:14:07;;;;;;;;;;;;;;;;;;2107834;28;19924;-44
2022/08/14 07:15:09;;;;;;;;;;;;;;;;;;2107672;28;20408;-44
2022/08/14 07:16:11;;;;;;;;;;;;;;;;;;2107536;28;20464;-45
2022/08/14 07:17:12;;;;;;;;;;;;;;;;;;2108048;28;20030;-46
2022/08/14 07:18:13;;;;;;;;;;;;;;;;;;2107706;28;19931;-45
2022/08/14 07:19:14;;;;;;;;;;;;;;;;;;2108011;28;19924;-44
2022/08/14 07:20:19;;;;;;;;;;;;;;;;;;2107638;28;19955;-44
2022/08/14 07:21:20;;;;;;;;;;;;;;;;;;2107759;28;20212;-44
2022/08/14 07:22:21;;;;;;;;;;;;;;;;;;2107784;28;20010;-45
2022/08/14 07:23:22;;;;;;;;;;;;;;;;;;2107689;28;19924;-45
2022/08/14 07:24:23;;;;;;;;;;;;;;;;;;2107704;28;20399;-45
2022/08/14 07:25:27;;;;;;;;;;;;;;;;;;2107779;28;20008;-46
2022/08/14 07:26:33;;;;;;;;;;;;;;;;;;2107619;28;19935;-45
2022/08/14 07:27:34;;;;;;;;;;;;;;;;;;2107553;28;19924;-45
2022/08/14 07:28:36;;;;;;;;;;;;;;;;;;2107639;28;19930;-45
2022/08/14 07:29:43;;;;;;;;;;;;;;;;;;2107504;28;20306;-45
2022/08/14 07:30:44;;;;;;;;;;;;;;;;;;2107531;28;19930;-45
2022/08/14 07:31:51;;;;;;;;;;;;;;;;;;2107525;28;20285;-45
2022/08/14 07:32:53;;;;;;;;;;;;;;;;;;2107753;28;19928;-46
2022/08/14 07:33:54;;;;;;;;;;;;;;;;;;2107689;28;20003;-44